createdAt,value
2023-02-14T00:01:25.033Z,60.97
2023-02-14T00:03:53.116Z,61.22
2023-02-14T00:06:20.688Z,61.06
2023-02-14T00:08:48.236Z,61.49
2023-02-14T00:11:16.154Z,61.01
2023-02-14T00:14:03.650Z,59.76
2023-02-14T00:16:32.320Z,59.33
2023-02-14T00:19:06.007Z,59.32
2023-02-14T00:21:36.287Z,59.26
2023-02-14T00:24:05.738Z,59.09
2023-02-14T00:26:33.354Z,59.01
2023-02-14T00:29:01.233Z,59.38
2023-02-14T00:31:28.947Z,58.98
2023-02-14T00:33:56.543Z,59.17
2023-02-14T00:36:24.776Z,59.16
2023-02-14T00:38:52.488Z,59.56
2023-02-14T00:41:20.041Z,60.46
2023-02-14T00:43:53.387Z,62.00
2023-02-14T00:46:22.468Z,62.20
2023-02-14T00:48:51.034Z,62.30
2023-02-14T00:51:19.629Z,62.75
2023-02-14T00:53:48.709Z,62.66
2023-02-14T00:56:18.489Z,63.21
2023-02-14T00:58:46.321Z,63.09
2023-02-14T01:01:15.125Z,63.06
2023-02-14T01:03:43.454Z,63.00
2023-02-14T01:06:11.561Z,62.48
2023-02-14T01:08:39.213Z,61.78
2023-02-14T01:11:21.357Z,60.80
2023-02-14T01:13:50.131Z,62.46
2023-02-14T01:16:20.838Z,62.79
2023-02-14T01:18:48.926Z,62.30
2023-02-14T01:21:25.420Z,61.78
2023-02-14T01:23:55.653Z,61.58
2023-02-14T01:26:24.466Z,62.02
2023-02-14T01:28:52.240Z,61.95
2023-02-14T01:31:29.332Z,61.86
2023-02-14T01:33:58.545Z,62.25
2023-02-14T01:36:35.806Z,61.98
2023-02-14T01:39:09.112Z,61.24
2023-02-14T01:41:38.546Z,61.26
2023-02-14T01:44:15.629Z,61.85
2023-02-14T01:46:44.774Z,60.84
2023-02-14T01:49:26.190Z,61.85
2023-02-14T01:52:03.916Z,61.69
2023-02-14T01:54:33.575Z,61.30
2023-02-14T01:57:04.394Z,61.21
2023-02-14T01:59:36.375Z,59.87
2023-02-14T02:02:05.596Z,60.29
2023-02-14T02:04:37.629Z,60.59
2023-02-14T02:07:10.774Z,61.39
2023-02-14T02:09:43.948Z,61.90
2023-02-14T02:12:12.024Z,60.78
2023-02-14T02:14:41.099Z,60.46
2023-02-14T02:17:27.842Z,60.11
2023-02-14T02:20:40.341Z,60.06
2023-02-14T02:23:17.353Z,59.86
2023-02-14T02:26:10.053Z,59.81
2023-02-14T02:28:55.631Z,60.11
2023-02-14T02:31:45.407Z,60.50
2023-02-14T02:34:25.542Z,60.87
2023-02-14T02:37:18.147Z,60.26
2023-02-14T02:39:55.998Z,60.66
2023-02-14T02:42:36.180Z,60.24
2023-02-14T02:45:29.079Z,59.36
2023-02-14T02:48:15.708Z,59.67
2023-02-14T02:51:09.334Z,60.18
2023-02-14T02:53:36.555Z,60.21
2023-02-14T02:56:31.125Z,60.02
2023-02-14T02:59:18.403Z,60.79
2023-02-14T03:01:57.246Z,60.55
2023-02-14T03:04:45.185Z,60.55
2023-02-14T03:07:31.739Z,60.33
2023-02-14T03:10:01.176Z,60.22
2023-02-14T03:12:42.363Z,60.76
2023-02-14T03:15:28.252Z,60.51
2023-02-14T03:18:44.558Z,60.49
2023-02-14T03:21:33.377Z,61.25
2023-02-14T03:24:11.940Z,61.17
2023-02-14T03:26:49.918Z,60.93
2023-02-14T03:29:18.498Z,60.46
2023-02-14T03:31:59.129Z,60.83
2023-02-14T03:34:34.429Z,62.03
2023-02-14T03:37:10.506Z,62.71
2023-02-14T03:39:59.882Z,61.72
2023-02-14T03:42:32.882Z,61.95
2023-02-14T03:45:02.181Z,61.53
2023-02-14T03:47:32.946Z,61.58
2023-02-14T03:50:05.600Z,61.50
2023-02-14T03:52:34.415Z,62.08
2023-02-14T03:55:03.474Z,62.68
2023-02-14T03:58:00.328Z,63.01
2023-02-14T04:00:30.504Z,62.68
2023-02-14T04:03:02.465Z,63.04
2023-02-14T04:05:30.494Z,63.74
2023-02-14T04:07:59.242Z,63.34
2023-02-14T04:10:27.293Z,63.42
2023-02-14T04:12:54.780Z,64.27
2023-02-14T04:15:23.104Z,65.00
2023-02-14T04:18:09.290Z,64.94
2023-02-14T04:20:37.311Z,64.44
2023-02-14T04:23:05.029Z,64.62
2023-02-14T04:25:34.998Z,64.81
2023-02-14T04:28:02.869Z,65.14
2023-02-14T04:30:30.469Z,65.27
2023-02-14T04:32:58.039Z,65.21
2023-02-14T04:35:26.055Z,65.42
2023-02-14T04:37:53.888Z,65.65
2023-02-14T04:40:21.956Z,64.64
2023-02-14T04:42:50.044Z,64.84
2023-02-14T04:45:17.731Z,64.72
2023-02-14T04:47:45.528Z,64.77
2023-02-14T04:50:14.203Z,64.55
2023-02-14T04:52:41.736Z,64.13
2023-02-14T04:55:10.190Z,63.41
2023-02-14T04:57:38.217Z,62.90
2023-02-14T05:00:06.767Z,61.69
2023-02-14T05:02:34.295Z,62.03
2023-02-14T05:05:02.163Z,62.31
2023-02-14T05:07:29.683Z,61.80
2023-02-14T05:09:57.645Z,61.35
2023-02-14T05:12:25.638Z,61.46
2023-02-14T05:14:53.240Z,61.87
2023-02-14T05:17:20.841Z,60.90
2023-02-14T05:19:48.543Z,59.70
2023-02-14T05:22:18.395Z,60.25
2023-02-14T05:24:46.268Z,60.18
2023-02-14T05:27:14.128Z,60.96
2023-02-14T05:29:41.663Z,61.66
2023-02-14T05:32:09.247Z,61.95
2023-02-14T05:34:37.186Z,62.86
2023-02-14T05:37:04.582Z,63.62
2023-02-14T05:39:32.092Z,63.58
2023-02-14T05:42:00.024Z,62.90
2023-02-14T05:44:27.917Z,63.54
2023-02-14T05:46:55.476Z,63.23
2023-02-14T05:49:23.386Z,63.43
2023-02-14T05:51:50.989Z,63.93
2023-02-14T05:54:18.802Z,63.49
2023-02-14T05:56:46.669Z,62.67
2023-02-14T05:59:14.648Z,62.68
2023-02-14T06:01:42.215Z,62.19
2023-02-14T06:04:10.399Z,62.01
2023-02-14T06:06:37.995Z,61.93
2023-02-14T06:09:05.653Z,60.96
2023-02-14T06:11:33.480Z,61.59
2023-02-14T06:14:01.272Z,61.75
2023-02-14T06:16:28.710Z,61.68
2023-02-14T06:18:56.628Z,62.18
2023-02-14T06:21:24.041Z,61.68
2023-02-14T06:23:51.611Z,60.80
2023-02-14T06:26:19.397Z,61.35
2023-02-14T06:28:46.781Z,61.39
2023-02-14T06:31:17.652Z,61.00
2023-02-14T06:33:45.453Z,61.06
2023-02-14T06:36:12.892Z,61.69
2023-02-14T06:38:41.313Z,61.93
2023-02-14T06:41:10.636Z,61.51
2023-02-14T06:43:38.195Z,61.82
2023-02-14T06:46:06.366Z,60.88
2023-02-14T06:48:35.471Z,61.28
2023-02-14T06:51:10.102Z,60.82
2023-02-14T06:53:38.435Z,60.23
2023-02-14T06:56:06.372Z,60.23
2023-02-14T06:58:34.052Z,59.86
2023-02-14T07:01:02.406Z,60.11
2023-02-14T07:03:29.966Z,59.78
2023-02-14T07:05:58.322Z,60.54
2023-02-14T07:08:26.491Z,60.69
2023-02-14T07:10:58.226Z,60.12
2023-02-14T07:13:26.230Z,59.57
2023-02-14T07:15:54.165Z,59.01
2023-02-14T07:18:22.014Z,59.02
2023-02-14T07:20:50.893Z,59.21
2023-02-14T07:23:18.593Z,58.59
2023-02-14T07:25:46.239Z,58.70
2023-02-14T07:28:14.197Z,58.54
2023-02-14T07:30:41.943Z,58.90
2023-02-14T07:33:09.508Z,58.47
2023-02-14T07:35:37.252Z,59.24
2023-02-14T07:38:04.706Z,59.62
2023-02-14T07:40:32.359Z,58.54
2023-02-14T07:43:01.022Z,56.79
2023-02-14T07:45:28.603Z,56.78
2023-02-14T07:47:56.296Z,56.36
2023-02-14T07:50:24.369Z,55.24
2023-02-14T07:52:52.207Z,56.17
2023-02-14T07:55:21.918Z,56.51
2023-02-14T07:57:52.531Z,56.51
2023-02-14T08:00:20.615Z,55.00
2023-02-14T08:02:49.521Z,55.34
2023-02-14T08:05:17.710Z,55.23
2023-02-14T08:07:46.342Z,55.29
2023-02-14T08:10:14.419Z,54.03
2023-02-14T08:13:00.794Z,53.89
2023-02-14T08:15:51.680Z,53.74
2023-02-14T08:18:21.164Z,54.17
2023-02-14T08:20:52.826Z,53.56
2023-02-14T08:23:21.237Z,53.34
2023-02-14T08:25:50.072Z,53.18
2023-02-14T08:28:18.433Z,53.67
2023-02-14T08:30:46.182Z,52.70
2023-02-14T08:33:14.152Z,52.68
2023-02-14T08:35:42.066Z,54.00
2023-02-14T08:38:09.917Z,53.46
2023-02-14T08:40:38.042Z,52.22
2023-02-14T08:43:06.762Z,52.99
2023-02-14T08:45:34.518Z,52.23
2023-02-14T08:48:04.350Z,52.52
2023-02-14T08:50:32.221Z,51.40
2023-02-14T08:53:00.132Z,50.53
2023-02-14T08:55:28.075Z,51.46
2023-02-14T08:57:57.771Z,52.55
2023-02-14T09:00:25.525Z,51.15
2023-02-14T09:02:53.826Z,49.04
2023-02-14T09:05:23.501Z,49.35
2023-02-14T09:07:51.445Z,49.49
2023-02-14T09:10:19.471Z,50.34
2023-02-14T09:12:47.364Z,48.50
2023-02-14T09:15:14.918Z,48.39
2023-02-14T09:17:42.642Z,48.72
2023-02-14T09:20:12.568Z,48.59
2023-02-14T09:22:40.102Z,48.88
2023-02-14T09:25:08.172Z,49.74
2023-02-14T09:27:35.769Z,49.50
2023-02-14T09:30:05.824Z,49.46
2023-02-14T09:32:33.887Z,49.53
2023-02-14T09:35:20.165Z,48.49
2023-02-14T09:37:48.051Z,48.41
2023-02-14T09:40:17.481Z,48.57
2023-02-14T09:43:30.834Z,48.95
2023-02-14T09:46:02.364Z,49.47
2023-02-14T09:48:34.223Z,49.89
2023-02-14T09:51:07.708Z,48.61
2023-02-14T09:53:48.838Z,48.34
2023-02-14T09:56:26.266Z,49.06
2023-02-14T09:59:05.152Z,49.56
2023-02-14T10:01:38.170Z,50.25
2023-02-14T10:04:27.575Z,50.20
2023-02-14T10:07:00.911Z,49.90
2023-02-14T10:09:54.498Z,49.11
2023-02-14T10:12:27.137Z,48.25
2023-02-14T10:14:57.182Z,48.75
2023-02-14T10:17:45.472Z,48.19
2023-02-14T10:20:21.751Z,46.06
2023-02-14T10:23:17.094Z,44.96
2023-02-14T10:25:48.529Z,44.85
2023-02-14T10:28:17.873Z,46.54
2023-02-14T10:31:01.564Z,46.86
2023-02-14T10:33:32.083Z,46.83
2023-02-14T10:36:04.964Z,44.92
2023-02-14T10:38:41.492Z,46.24
2023-02-14T10:41:30.732Z,48.12
2023-02-14T10:44:33.689Z,47.51
2023-02-14T10:47:07.461Z,45.23
2023-02-14T10:49:55.359Z,44.11
2023-02-14T10:52:25.983Z,43.10
2023-02-14T10:54:58.475Z,44.00
2023-02-14T10:57:30.584Z,45.27
2023-02-14T11:00:08.362Z,43.65
2023-02-14T11:02:42.406Z,43.71
2023-02-14T11:05:31.490Z,45.39
2023-02-14T11:08:00.140Z,45.32
2023-02-14T11:10:32.928Z,43.63
2023-02-14T11:13:00.845Z,42.88
2023-02-14T11:15:31.693Z,43.23
2023-02-14T11:18:23.825Z,42.80
2023-02-14T11:21:11.042Z,44.05
2023-02-14T11:23:45.687Z,45.55
2023-02-14T11:26:30.691Z,45.90
2023-02-14T11:29:02.192Z,44.89
2023-02-14T11:31:40.220Z,44.97
2023-02-14T11:34:37.010Z,45.16
2023-02-14T11:37:21.886Z,45.95
2023-02-14T11:39:50.670Z,45.82
2023-02-14T11:42:37.250Z,42.75
2023-02-14T11:45:06.012Z,40.68
2023-02-14T11:47:41.438Z,38.66
2023-02-14T11:50:24.749Z,39.24
2023-02-14T11:52:55.230Z,40.84
2023-02-14T11:55:30.521Z,42.12
2023-02-14T11:57:58.580Z,42.29
2023-02-14T12:00:31.349Z,42.48
2023-02-14T12:03:02.161Z,42.29
2023-02-14T12:05:44.280Z,41.49
2023-02-14T12:08:12.008Z,41.24
2023-02-14T12:10:39.876Z,39.25
2023-02-14T12:13:10.357Z,38.66
2023-02-14T12:15:44.485Z,39.47
2023-02-14T12:18:21.590Z,39.33
2023-02-14T12:21:20.282Z,38.90
2023-02-14T12:24:02.597Z,38.94
2023-02-14T12:27:20.486Z,38.71
2023-02-14T12:30:14.278Z,38.45
2023-02-14T12:32:50.702Z,39.06
2023-02-14T12:35:49.289Z,38.91
2023-02-14T12:38:48.782Z,38.49
2023-02-14T12:41:25.321Z,38.84
2023-02-14T12:43:57.581Z,37.91
2023-02-14T12:46:41.285Z,39.00
2023-02-14T12:49:56.901Z,39.08
2023-02-14T12:52:38.636Z,39.21
2023-02-14T12:55:28.646Z,39.46
2023-02-14T12:58:18.509Z,38.91
2023-02-14T13:00:59.848Z,38.64
2023-02-14T13:03:34.721Z,39.10
2023-02-14T13:06:32.217Z,39.89
2023-02-14T13:09:44.372Z,41.25
2023-02-14T13:12:30.202Z,41.16
2023-02-14T13:15:11.750Z,41.95
2023-02-14T13:17:57.074Z,42.48
2023-02-14T13:20:52.499Z,41.02
2023-02-14T13:23:30.582Z,41.62
2023-02-14T13:26:01.715Z,41.83
2023-02-14T13:28:31.259Z,41.92
2023-02-14T13:31:02.056Z,41.45
2023-02-14T13:33:36.538Z,41.06
2023-02-14T13:36:08.163Z,41.49
2023-02-14T13:38:45.104Z,41.31
2023-02-14T13:41:14.716Z,41.77
2023-02-14T13:43:47.720Z,41.18
2023-02-14T13:46:17.895Z,39.77
2023-02-14T13:48:57.171Z,39.47
2023-02-14T13:51:44.565Z,40.04
2023-02-14T13:54:36.430Z,39.18
2023-02-14T13:57:36.962Z,39.82
2023-02-14T14:00:19.435Z,39.33
2023-02-14T14:03:02.096Z,39.22
2023-02-14T14:05:30.978Z,38.93
2023-02-14T14:08:21.980Z,39.07
2023-02-14T14:10:55.179Z,38.46
2023-02-14T14:13:42.388Z,38.91
2023-02-14T14:16:21.537Z,39.29
2023-02-14T14:18:55.368Z,38.85
2023-02-14T14:21:45.714Z,40.46
2023-02-14T14:24:29.536Z,40.17
2023-02-14T14:26:57.330Z,40.29
2023-02-14T14:29:40.413Z,41.04
2023-02-14T14:32:25.253Z,40.28
2023-02-14T14:34:59.532Z,40.50
2023-02-14T14:37:30.276Z,40.78
2023-02-14T14:40:00.962Z,40.15
2023-02-14T14:42:40.194Z,41.10
2023-02-14T14:45:19.923Z,40.91
2023-02-14T14:47:48.091Z,40.43
2023-02-14T14:50:25.218Z,41.66
2023-02-14T14:52:55.330Z,40.75
2023-02-14T14:55:28.630Z,41.14
2023-02-14T14:57:58.510Z,41.74
2023-02-14T15:00:29.035Z,41.89
2023-02-14T15:03:15.163Z,41.64
2023-02-14T15:05:48.645Z,42.32
2023-02-14T15:08:32.109Z,41.52
2023-02-14T15:11:13.666Z,42.23
2023-02-14T15:13:49.777Z,42.38
2023-02-14T15:16:28.376Z,43.31
2023-02-14T15:19:11.014Z,42.29
2023-02-14T15:21:44.522Z,42.27
2023-02-14T15:24:17.559Z,42.40
2023-02-14T15:26:47.509Z,42.91
2023-02-14T15:29:24.102Z,43.00
2023-02-14T15:31:52.991Z,42.74
2023-02-14T15:34:32.087Z,42.56
2023-02-14T15:37:03.617Z,42.81
2023-02-14T15:39:43.923Z,42.90
2023-02-14T15:42:32.707Z,43.37
2023-02-14T15:45:26.229Z,44.21
2023-02-14T15:48:03.044Z,43.72
2023-02-14T15:50:34.144Z,43.92
2023-02-14T15:53:06.143Z,44.25
2023-02-14T15:55:34.531Z,43.98
2023-02-14T15:58:06.300Z,44.00
2023-02-14T16:00:33.885Z,44.38
2023-02-14T16:03:07.853Z,44.94
2023-02-14T16:05:35.435Z,45.13
2023-02-14T16:08:05.957Z,44.89
2023-02-14T16:10:35.054Z,44.81
2023-02-14T16:13:27.379Z,45.12
2023-02-14T16:15:59.545Z,45.30
2023-02-14T16:18:42.589Z,45.40
2023-02-14T16:21:16.513Z,45.63
2023-02-14T16:24:06.181Z,45.92
2023-02-14T16:26:35.296Z,46.17
2023-02-14T16:29:07.819Z,46.61
2023-02-14T16:31:38.717Z,46.33
2023-02-14T16:34:06.703Z,46.47
2023-02-14T16:36:34.490Z,46.81
2023-02-14T16:39:05.046Z,46.69
2023-02-14T16:41:34.320Z,46.65
2023-02-14T16:44:01.953Z,48.08
2023-02-14T16:46:31.307Z,47.78
2023-02-14T16:48:59.228Z,47.99
2023-02-14T16:51:32.863Z,48.02
2023-02-14T16:54:04.639Z,48.57
2023-02-14T16:56:46.418Z,48.52
2023-02-14T16:59:14.309Z,48.87
2023-02-14T17:01:42.187Z,49.32
2023-02-14T17:04:10.340Z,49.64
2023-02-14T17:06:41.733Z,50.43
2023-02-14T17:09:11.656Z,50.29
2023-02-14T17:11:43.575Z,50.12
2023-02-14T17:14:12.783Z,50.49
2023-02-14T17:16:41.147Z,50.89
2023-02-14T17:19:08.680Z,50.57
2023-02-14T17:21:36.800Z,51.03
2023-02-14T17:24:04.688Z,51.46
2023-02-14T17:26:34.123Z,51.63
2023-02-14T17:29:01.597Z,51.78
2023-02-14T17:31:29.479Z,51.71
2023-02-14T17:33:56.986Z,50.88
2023-02-14T17:36:24.512Z,51.14
2023-02-14T17:38:53.378Z,51.42
2023-02-14T17:41:26.177Z,51.95
2023-02-14T17:43:54.918Z,52.01
2023-02-14T17:46:22.617Z,51.69
2023-02-14T17:48:50.306Z,51.71
2023-02-14T17:51:20.470Z,51.98
2023-02-14T17:53:51.075Z,51.82
2023-02-14T17:56:25.934Z,52.04
2023-02-14T17:58:55.080Z,52.27
2023-02-14T18:01:25.174Z,52.12
2023-02-14T18:03:56.032Z,53.15
2023-02-14T18:06:24.057Z,53.50
2023-02-14T18:08:57.049Z,54.13
2023-02-14T18:11:27.013Z,53.58
2023-02-14T18:13:59.749Z,53.29
2023-02-14T18:16:27.685Z,53.19
2023-02-14T18:18:55.319Z,53.16
2023-02-14T18:21:24.602Z,53.21
2023-02-14T18:23:53.772Z,53.09
2023-02-14T18:26:21.232Z,53.20
2023-02-14T18:28:50.957Z,53.64
2023-02-14T18:31:19.817Z,53.44
2023-02-14T18:33:49.104Z,53.84
2023-02-14T18:36:19.789Z,54.11
2023-02-14T18:38:49.032Z,54.47
2023-02-14T18:41:18.209Z,54.24
2023-02-14T18:43:46.025Z,54.73
2023-02-14T18:46:20.458Z,54.78
2023-02-14T18:48:48.415Z,54.41
2023-02-14T18:51:18.555Z,53.87
2023-02-14T18:53:47.428Z,54.22
2023-02-14T18:56:16.684Z,54.72
2023-02-14T18:58:47.207Z,54.96
2023-02-14T19:01:17.402Z,54.22
2023-02-14T19:03:45.596Z,54.36
2023-02-14T19:06:14.318Z,55.82
2023-02-14T19:08:45.306Z,56.20
2023-02-14T19:11:21.959Z,55.76
2023-02-14T19:13:52.207Z,56.31
2023-02-14T19:16:23.119Z,55.99
2023-02-14T19:18:53.362Z,55.93
2023-02-14T19:21:26.372Z,55.84
2023-02-14T19:23:56.527Z,56.02
2023-02-14T19:26:26.250Z,57.04
2023-02-14T19:28:59.533Z,56.99
2023-02-14T19:31:28.311Z,57.26
2023-02-14T19:33:55.933Z,57.05
2023-02-14T19:36:23.820Z,57.47
2023-02-14T19:38:53.332Z,58.17
2023-02-14T19:41:27.676Z,58.02
2023-02-14T19:43:58.770Z,58.07
2023-02-14T19:46:27.319Z,57.88
2023-02-14T19:48:58.480Z,57.95
2023-02-14T19:51:27.937Z,58.15
2023-02-14T19:53:57.237Z,58.21
2023-02-14T19:56:30.306Z,58.36
2023-02-14T19:58:58.680Z,58.20
2023-02-14T20:01:29.937Z,58.31
2023-02-14T20:03:57.897Z,58.10
2023-02-14T20:06:26.224Z,58.44
2023-02-14T20:08:54.192Z,57.55
2023-02-14T20:11:30.834Z,57.90
2023-02-14T20:14:00.004Z,58.59
2023-02-14T20:16:30.257Z,58.51
2023-02-14T20:18:58.098Z,57.97
2023-02-14T20:21:28.325Z,57.97
2023-02-14T20:24:01.056Z,59.33
2023-02-14T20:26:30.255Z,58.58
2023-02-14T20:28:59.564Z,58.58
2023-02-14T20:31:27.050Z,58.37
2023-02-14T20:33:55.817Z,57.85
2023-02-14T20:36:24.568Z,57.61
2023-02-14T20:38:59.920Z,57.60
2023-02-14T20:41:28.659Z,57.36
2023-02-14T20:44:04.013Z,56.98
2023-02-14T20:46:32.687Z,57.92
2023-02-14T20:49:00.232Z,57.39
2023-02-14T20:51:27.767Z,57.13
2023-02-14T20:53:56.029Z,57.39
2023-02-14T20:56:23.985Z,57.47
2023-02-14T20:58:51.574Z,58.34
2023-02-14T21:01:24.255Z,57.98
2023-02-14T21:03:53.016Z,57.73
2023-02-14T21:06:23.950Z,57.35
2023-02-14T21:08:51.892Z,57.36
2023-02-14T21:11:22.547Z,57.24
2023-02-14T21:13:54.143Z,56.88
2023-02-14T21:16:21.601Z,57.82
2023-02-14T21:19:00.355Z,57.84
2023-02-14T21:21:33.934Z,57.27
2023-02-14T21:24:05.552Z,57.50
2023-02-14T21:26:34.133Z,57.25
2023-02-14T21:29:01.944Z,57.51
2023-02-14T21:31:29.730Z,57.73
2023-02-14T21:33:59.289Z,57.70
2023-02-14T21:36:29.625Z,57.50
2023-02-14T21:38:58.767Z,57.58
2023-02-14T21:41:28.606Z,57.40
2023-02-14T21:43:57.688Z,57.92
2023-02-14T21:46:30.842Z,58.06
2023-02-14T21:49:20.742Z,57.88
2023-02-14T21:51:48.953Z,57.48
2023-02-14T21:54:17.012Z,57.67
2023-02-14T21:56:44.698Z,57.84
2023-02-14T21:59:13.104Z,57.57
2023-02-14T22:01:41.761Z,58.95
2023-02-14T22:04:11.298Z,58.06
2023-02-14T22:06:39.937Z,57.99
2023-02-14T22:09:07.963Z,57.69
2023-02-14T22:11:35.931Z,58.16
2023-02-14T22:14:03.685Z,58.77
2023-02-14T22:16:31.404Z,58.56
2023-02-14T22:18:59.237Z,58.94
2023-02-14T22:21:27.211Z,59.17
2023-02-14T22:23:55.612Z,59.32
2023-02-14T22:26:26.111Z,59.41
2023-02-14T22:28:59.346Z,59.32
2023-02-14T22:31:29.472Z,59.33
2023-02-14T22:33:57.165Z,59.21
2023-02-14T22:36:24.924Z,59.46
2023-02-14T22:38:52.750Z,58.98
2023-02-14T22:41:22.454Z,59.84
2023-02-14T22:43:50.839Z,59.80
2023-02-14T22:46:24.883Z,59.58
2023-02-14T22:48:52.940Z,58.49
2023-02-14T22:51:23.009Z,58.87
2023-02-14T22:53:51.978Z,58.86
2023-02-14T22:56:39.906Z,58.40
2023-02-14T22:59:18.011Z,58.71
2023-02-14T23:01:46.485Z,59.13
2023-02-14T23:04:16.716Z,59.31
2023-02-14T23:06:44.338Z,59.13
2023-02-14T23:09:12.901Z,58.93
2023-02-14T23:11:42.397Z,59.21
2023-02-14T23:14:31.141Z,59.30
2023-02-14T23:17:22.175Z,59.27
2023-02-14T23:20:08.300Z,59.51
2023-02-14T23:22:38.436Z,59.42
2023-02-14T23:25:08.646Z,59.69
2023-02-14T23:27:43.132Z,59.37
2023-02-14T23:30:16.817Z,59.15
2023-02-14T23:32:44.919Z,59.10
2023-02-14T23:35:12.866Z,58.99
2023-02-14T23:37:41.702Z,59.06
2023-02-14T23:40:10.101Z,59.08
2023-02-14T23:42:37.847Z,59.30
2023-02-14T23:45:24.350Z,59.60
2023-02-14T23:47:52.247Z,60.73
2023-02-14T23:50:19.875Z,60.00
2023-02-14T23:52:47.365Z,60.43
2023-02-14T23:55:15.259Z,60.40
2023-02-14T23:57:42.848Z,60.34
